Time;durP1;ratioP1;P1;durP2;ratioP2;P2;SDS_P1;SDS_P2;PMS_P1;PMS_P2;Temp;Humidity;BMP_temperature;BMP_pressure;BME280_temperature;BME280_humidity;BME280_pressure;Samples;Min_cycle;Max_cycle;Signal;HPM_P1;HPM_P2
2021/03/01 00:00:10;;;;;;;47.33;25.35;;;5.70;76.00;;;;;;4970078;28;20958;-71
2021/03/01 00:02:36;;;;;;;49.30;25.55;;;5.60;76.50;;;;;;4971700;28;20395;-71
2021/03/01 00:05:02;;;;;;;46.00;25.85;;;5.60;76.50;;;;;;4972581;28;20487;-72
2021/03/01 00:07:28;;;;;;;47.80;27.00;;;5.60;77.20;;;;;;4972916;28;20794;-71
2021/03/01 00:09:53;;;;;;;44.40;25.90;;;5.50;79.00;;;;;;4972693;28;20492;-71
2021/03/01 00:12:19;;;;;;;54.40;27.87;;;5.50;78.30;;;;;;4972763;28;20843;-72
2021/03/01 00:14:44;;;;;;;51.13;27.23;;;5.50;78.40;;;;;;4972868;28;20467;-72
2021/03/01 00:17:10;;;;;;;48.83;28.37;;;5.40;78.10;;;;;;4972803;28;20392;-73
2021/03/01 00:19:36;;;;;;;57.03;30.63;;;5.40;78.60;;;;;;4972256;28;20412;-72
2021/03/01 00:22:01;;;;;;;51.58;28.20;;;5.30;78.80;;;;;;4972721;28;20826;-72
2021/03/01 00:24:27;;;;;;;49.77;29.40;;;5.30;79.40;;;;;;4972336;28;20900;-72
2021/03/01 00:26:52;;;;;;;50.33;30.03;;;5.10;79.40;;;;;;4972546;28;20404;-72
2021/03/01 00:29:18;;;;;;;52.10;30.80;;;5.10;82.70;;;;;;4971989;28;20470;-72
2021/03/01 00:31:43;;;;;;;51.60;30.23;;;5.10;82.50;;;;;;4972491;28;20479;-72
2021/03/01 00:34:09;;;;;;;53.53;31.33;;;5.10;81.70;;;;;;4972269;28;20414;-72
2021/03/01 00:36:34;;;;;;;52.27;29.97;;;5.10;82.00;;;;;;4972171;28;20400;-71
2021/03/01 00:39:00;;;;;;;55.07;30.53;;;5.10;81.30;;;;;;4972083;28;20411;-71
2021/03/01 00:41:26;;;;;;;57.20;32.20;;;5.10;80.80;;;;;;4972245;28;20396;-72
2021/03/01 00:43:51;;;;;;;56.67;31.77;;;5.00;82.50;;;;;;4972155;28;20427;-72
2021/03/01 00:46:17;;;;;;;52.95;31.17;;;4.90;83.90;;;;;;4971974;28;20400;-72
2021/03/01 00:48:42;;;;;;;55.37;32.60;;;5.00;81.70;;;;;;4971899;28;20922;-71
2021/03/01 00:51:08;;;;;;;55.57;32.40;;;4.90;82.70;;;;;;4971890;28;20908;-73
2021/03/01 00:53:33;;;;;;;58.00;31.50;;;4.90;82.80;;;;;;4971482;28;20763;-72
2021/03/01 00:55:59;;;;;;;57.57;31.00;;;4.90;83.20;;;;;;4972013;28;20388;-72
2021/03/01 00:58:24;;;;;;;57.50;30.30;;;4.90;83.90;;;;;;4971865;28;20380;-72
2021/03/01 01:00:51;;;;;;;51.83;30.93;;;4.80;83.80;;;;;;4971045;28;20388;-72
2021/03/01 01:03:19;;;;;;;53.85;31.70;;;4.80;83.40;;;;;;4971771;28;20414;-71
2021/03/01 01:05:44;;;;;;;53.83;30.65;;;4.80;84.20;;;;;;4972110;28;20419;-72
2021/03/01 01:08:10;;;;;;;53.20;31.40;;;4.70;84.60;;;;;;4971790;28;20885;-73
2021/03/01 01:10:36;;;;;;;57.45;31.25;;;4.60;86.20;;;;;;4971120;28;20412;-72
2021/03/01 01:13:03;;;;;;;54.38;30.38;;;4.70;86.60;;;;;;4971783;28;20435;-72
2021/03/01 01:15:29;;;;;;;49.20;29.42;;;4.70;85.00;;;;;;4971942;28;20483;-72
2021/03/01 01:17:55;;;;;;;51.72;29.73;;;4.80;84.60;;;;;;4971845;28;20392;-71
2021/03/01 01:20:21;;;;;;;52.63;30.55;;;4.70;83.50;;;;;;4971832;28;20386;-71
2021/03/01 01:22:46;;;;;;;54.33;31.30;;;4.60;85.30;;;;;;4971656;28;20408;-72
2021/03/01 01:25:14;;;;;;;54.93;30.07;;;4.70;82.70;;;;;;4971974;28;20443;-73
2021/03/01 01:27:39;;;;;;;53.95;30.00;;;4.70;83.90;;;;;;4971559;28;20407;-71
2021/03/01 01:30:11;;;;;;;54.95;29.58;;;4.70;83.40;;;;;;4971433;28;20732;-73
2021/03/01 01:32:36;;;;;;;54.25;30.25;;;4.70;82.90;;;;;;4971334;28;20415;-71
2021/03/01 01:35:10;;;;;;;56.28;31.10;;;4.60;84.00;;;;;;4971939;28;20476;-74
2021/03/01 01:37:36;;;;;;;54.85;31.58;;;4.60;84.30;;;;;;4971950;28;20960;-73
2021/03/01 01:40:04;;;;;;;51.80;30.20;;;4.50;84.20;;;;;;4971577;28;20754;-74
2021/03/01 01:42:30;;;;;;;56.65;32.45;;;4.40;86.70;;;;;;4971189;28;20404;-72
2021/03/01 01:44:57;;;;;;;57.70;31.73;;;4.40;86.80;;;;;;4971623;28;20395;-71
2021/03/01 01:47:22;;;;;;;56.70;32.53;;;4.40;86.80;;;;;;4971697;28;20423;-71
2021/03/01 01:49:48;;;;;;;49.63;30.60;;;4.40;87.30;;;;;;4971754;28;20392;-71
2021/03/01 01:52:14;;;;;;;55.33;31.77;;;4.30;88.40;;;;;;4971668;28;20388;-72
2021/03/01 01:54:41;;;;;;;57.75;32.03;;;4.20;89.90;;;;;;4971563;28;20415;-71
2021/03/01 01:57:06;;;;;;;56.45;31.90;;;4.30;88.50;;;;;;4971089;28;20404;-71
2021/03/01 01:59:32;;;;;;;56.40;31.83;;;4.30;89.20;;;;;;4971171;28;20895;-72
2021/03/01 02:01:58;;;;;;;54.30;31.27;;;4.40;88.00;;;;;;4971136;28;20428;-72
2021/03/01 02:04:30;;;;;;;57.00;32.55;;;4.30;88.00;;;;;;4971490;28;20388;-72
2021/03/01 02:07:04;;;;;;;55.17;31.85;;;4.40;87.10;;;;;;4971358;28;20447;-71
2021/03/01 02:10:00;;;;;;;56.47;32.10;;;4.40;85.50;;;;;;4971407;28;20388;-72
2021/03/01 02:12:55;;;;;;;55.67;32.15;;;4.40;86.00;;;;;;4953520;28;20401;-73
2021/03/01 02:15:43;;;;;;;64.90;33.53;;;4.30;86.40;;;;;;4955700;29;20404;-72
2021/03/01 02:18:10;;;;;;;55.58;31.98;;;4.30;88.30;;;;;;4970479;28;20481;-72
2021/03/01 02:20:42;;;;;;;56.28;32.33;;;4.30;87.60;;;;;;4955282;29;20425;-71
2021/03/01 02:23:10;;;;;;;56.00;31.70;;;4.30;86.70;;;;;;4955436;29;20448;-71
2021/03/01 02:25:37;;;;;;;55.88;32.15;;;4.30;86.30;;;;;;4969418;28;20427;-71
2021/03/01 02:28:06;;;;;;;58.58;32.20;;;4.30;87.30;;;;;;4974902;28;20399;-72
2021/03/01 02:30:36;;;;;;;60.07;32.50;;;4.30;87.30;;;;;;4974261;28;20997;-71
2021/03/01 02:33:06;;;;;;;56.00;30.00;;;4.30;87.90;;;;;;4974580;28;20416;-71
2021/03/01 02:35:34;;;;;;;57.50;31.70;;;4.20;87.90;;;;;;4974446;28;20389;-72
2021/03/01 02:38:02;;;;;;;59.58;30.95;;;4.20;88.40;;;;;;4974322;28;20388;-72
2021/03/01 02:40:29;;;;;;;56.97;32.25;;;4.20;88.40;;;;;;4974071;28;20866;-71
2021/03/01 02:42:56;;;;;;;54.75;31.38;;;4.20;88.50;;;;;;4972550;28;20447;-72
2021/03/01 02:45:23;;;;;;;56.80;29.85;;;4.20;88.30;;;;;;4974181;28;20419;-71
2021/03/01 02:47:48;;;;;;;54.55;29.85;;;4.20;87.40;;;;;;4974336;28;20498;-72
2021/03/01 02:50:15;;;;;;;51.45;29.55;;;4.20;86.60;;;;;;4973970;28;20918;-73
2021/03/01 02:52:42;;;;;;;55.78;31.27;;;4.20;86.40;;;;;;4974226;28;20485;-72
2021/03/01 02:55:09;;;;;;;53.35;30.38;;;4.10;87.80;;;;;;4973889;28;20384;-70
2021/03/01 02:57:37;;;;;;;53.53;29.85;;;4.10;88.20;;;;;;4974091;28;20431;-70
2021/03/01 03:00:11;;;;;;;53.08;29.00;;;4.10;89.30;;;;;;4973775;28;20483;-71
2021/03/01 03:02:39;;;;;;;54.77;30.30;;;4.00;89.90;;;;;;4956867;28;20491;-71
2021/03/01 03:05:07;;;;;;;57.15;29.95;;;4.10;89.70;;;;;;4975040;28;20392;-71
2021/03/01 03:07:35;;;;;;;50.20;28.70;;;4.10;89.30;;;;;;4975100;28;20384;-71
2021/03/01 03:10:02;;;;;;;54.58;29.92;;;4.10;87.30;;;;;;4974426;28;20902;-72
2021/03/01 03:12:30;;;;;;;49.88;28.55;;;4.10;89.20;;;;;;4974755;28;20392;-70
2021/03/01 03:14:57;;;;;;;51.43;29.33;;;4.00;88.80;;;;;;4974470;28;20392;-71
2021/03/01 03:17:23;;;;;;;49.20;29.05;;;4.00;89.10;;;;;;4974651;28;20392;-71
2021/03/01 03:19:49;;;;;;;53.70;28.90;;;4.10;87.30;;;;;;4957121;28;20395;-71
2021/03/01 03:22:16;;;;;;;49.78;27.80;;;4.00;87.70;;;;;;4974556;28;20385;-70
2021/03/01 03:24:41;;;;;;;51.03;28.45;;;4.00;88.40;;;;;;4974086;28;20885;-72
2021/03/01 03:27:07;;;;;;;48.80;27.58;;;4.00;87.20;;;;;;4974526;28;20448;-70
2021/03/01 03:29:33;;;;;;;52.90;28.93;;;4.00;87.50;;;;;;4973362;28;20400;-72
2021/03/01 03:31:58;;;;;;;52.13;28.13;;;3.90;88.00;;;;;;4973600;28;20395;-72
2021/03/01 03:34:26;;;;;;;47.42;27.27;;;3.80;89.50;;;;;;4973255;28;20423;-72
2021/03/01 03:37:23;;;;;;;48.47;27.30;;;3.90;88.70;;;;;;4973415;28;20384;-71
2021/03/01 03:39:51;;;;;;;48.75;28.50;;;4.00;88.10;;;;;;4953179;29;20406;-71
2021/03/01 03:42:22;;;;;;;51.42;28.50;;;4.00;86.70;;;;;;4963700;28;20388;-72
2021/03/01 03:44:51;;;;;;;49.63;27.30;;;4.00;87.60;;;;;;4973366;28;20392;-72
2021/03/01 03:47:17;;;;;;;50.75;26.98;;;4.10;88.00;;;;;;4973449;28;20403;-72
2021/03/01 03:49:44;;;;;;;52.30;28.40;;;4.20;86.90;;;;;;4973037;28;20392;-73
2021/03/01 03:52:14;;;;;;;49.83;26.58;;;4.30;86.30;;;;;;4972977;28;20490;-71
2021/03/01 03:54:41;;;;;;;51.38;27.40;;;4.30;86.00;;;;;;4973137;28;20419;-72
2021/03/01 03:57:12;;;;;;;51.60;27.75;;;4.20;86.50;;;;;;4973109;28;20474;-71
2021/03/01 03:59:40;;;;;;;50.45;27.35;;;4.20;87.30;;;;;;4972814;28;20461;-72
2021/03/01 04:02:09;;;;;;;53.23;28.17;;;4.40;87.40;;;;;;4972837;28;20411;-71
2021/03/01 04:04:36;;;;;;;46.92;26.65;;;4.50;86.70;;;;;;4972922;28;20479;-72
2021/03/01 04:07:04;;;;;;;47.00;26.98;;;4.50;85.20;;;;;;4973082;28;20423;-71
2021/03/01 04:09:32;;;;;;;53.30;28.95;;;4.60;84.80;;;;;;4972554;28;20396;-72
2021/03/01 04:11:59;;;;;;;49.67;26.50;;;4.60;83.80;;;;;;4972929;28;20428;-72
2021/03/01 04:14:26;;;;;;;51.50;27.90;;;4.70;83.00;;;;;;4972737;28;20775;-72
2021/03/01 04:17:05;;;;;;;52.97;29.27;;;4.70;83.40;;;;;;4972702;28;20399;-72
2021/03/01 04:19:34;;;;;;;55.10;28.80;;;4.70;85.30;;;;;;4971933;28;20400;-72
2021/03/01 04:22:00;;;;;;;46.40;27.25;;;4.70;84.50;;;;;;4972414;28;20400;-72
2021/03/01 04:24:28;;;;;;;48.17;26.65;;;4.70;83.90;;;;;;4972308;28;20411;-72
2021/03/01 04:26:54;;;;;;;50.67;29.02;;;4.80;81.40;;;;;;4972531;28;20434;-70
2021/03/01 04:29:21;;;;;;;52.35;29.42;;;4.60;82.70;;;;;;4972036;28;20419;-71
2021/03/01 04:31:48;;;;;;;53.88;29.75;;;4.70;86.50;;;;;;4972121;28;20491;-72
2021/03/01 04:34:16;;;;;;;51.80;28.88;;;4.70;85.20;;;;;;4952754;28;20417;-71
2021/03/01 04:36:42;;;;;;;46.40;27.00;;;4.70;85.80;;;;;;4953026;29;20539;-70
2021/03/01 04:39:08;;;;;;;49.00;27.10;;;4.80;82.80;;;;;;4967763;28;20857;-72
2021/03/01 04:41:35;;;;;;;49.72;25.70;;;4.80;82.40;;;;;;4972202;28;20388;-71
2021/03/01 04:44:03;;;;;;;47.45;27.23;;;4.80;79.30;;;;;;4972473;28;20392;-74
2021/03/01 04:46:30;;;;;;;47.57;26.67;;;4.70;82.40;;;;;;4971741;28;20805;-73
2021/03/01 04:48:56;;;;;;;48.20;26.77;;;4.70;82.20;;;;;;4972221;28;20396;-73
2021/03/01 04:51:25;;;;;;;48.60;27.15;;;4.60;83.20;;;;;;4955426;28;20584;-72
2021/03/01 04:53:53;;;;;;;50.30;26.00;;;4.50;85.70;;;;;;4971545;28;20491;-75
2021/03/01 04:56:19;;;;;;;43.67;26.10;;;4.60;84.70;;;;;;4974170;28;20404;-73
2021/03/01 04:58:45;;;;;;;54.85;26.70;;;4.70;84.50;;;;;;4974546;28;20447;-73
2021/03/01 05:01:11;;;;;;;45.63;25.33;;;4.70;85.60;;;;;;4975693;28;20392;-73
2021/03/01 05:03:38;;;;;;;48.10;26.15;;;4.80;82.30;;;;;;4974978;28;20402;-73
2021/03/01 05:06:05;;;;;;;45.05;25.15;;;4.80;82.00;;;;;;4974480;28;20455;-74
2021/03/01 05:08:33;;;;;;;48.78;26.60;;;4.80;81.50;;;;;;4953195;29;20505;-75
2021/03/01 05:11:00;;;;;;;48.85;26.60;;;4.80;80.50;;;;;;4954915;29;20471;-73
2021/03/01 05:13:25;;;;;;;46.92;26.48;;;4.80;81.10;;;;;;4962861;28;20632;-74
2021/03/01 05:15:51;;;;;;;48.37;27.40;;;4.60;83.40;;;;;;4974028;28;20866;-73
2021/03/01 05:18:18;;;;;;;46.17;25.80;;;4.60;84.20;;;;;;4974667;28;20718;-74
2021/03/01 05:20:44;;;;;;;49.20;26.35;;;4.60;84.40;;;;;;4973671;28;20391;-74
2021/03/01 05:23:09;;;;;;;46.30;26.23;;;4.60;84.00;;;;;;4973643;28;20392;-74
2021/03/01 05:25:35;;;;;;;48.20;27.03;;;4.70;84.60;;;;;;4973093;28;20393;-74
2021/03/01 05:28:01;;;;;;;43.53;25.30;;;4.80;82.40;;;;;;4973769;28;20408;-74
2021/03/01 05:30:27;;;;;;;43.20;24.90;;;4.80;79.70;;;;;;4973505;28;20422;-73
2021/03/01 05:32:52;;;;;;;43.22;24.63;;;4.80;78.10;;;;;;4974259;28;20408;-74
2021/03/01 05:35:18;;;;;;;43.37;24.70;;;4.80;79.00;;;;;;4973108;28;20475;-74
2021/03/01 05:37:46;;;;;;;47.13;26.77;;;4.60;79.80;;;;;;4971744;28;20514;-73
2021/03/01 05:40:12;;;;;;;49.63;26.10;;;4.50;83.50;;;;;;4970833;28;20439;-73
2021/03/01 05:42:40;;;;;;;49.45;26.42;;;4.40;84.60;;;;;;4971773;28;20427;-73
2021/03/01 05:45:08;;;;;;;47.20;26.75;;;4.50;87.70;;;;;;4972514;28;20415;-74
2021/03/01 05:47:35;;;;;;;44.75;25.23;;;4.60;84.00;;;;;;4977718;28;20511;-74
2021/03/01 05:50:03;;;;;;;45.50;24.88;;;4.70;84.30;;;;;;4978158;28;20400;-74
2021/03/01 05:52:29;;;;;;;43.43;23.60;;;4.70;83.70;;;;;;4978145;28;20492;-72
2021/03/01 05:54:55;;;;;;;45.95;25.63;;;4.70;80.50;;;;;;4979420;28;20416;-73
2021/03/01 05:57:23;;;;;;;46.92;26.02;;;4.80;79.30;;;;;;4986643;28;20411;-73
2021/03/01 05:59:49;;;;;;;46.40;25.17;;;4.70;78.60;;;;;;4975596;28;21049;-73
2021/03/01 06:02:19;;;;;;;46.20;25.83;;;4.70;78.20;;;;;;4976442;28;20510;-74
2021/03/01 06:04:45;;;;;;;45.28;24.38;;;4.70;78.60;;;;;;4976413;28;20411;-74
2021/03/01 06:07:11;;;;;;;46.10;24.55;;;4.70;78.80;;;;;;4976222;28;20403;-74
2021/03/01 06:09:36;;;;;;;46.57;26.57;;;4.70;80.90;;;;;;4977398;28;20416;-74
2021/03/01 06:12:02;;;;;;;46.72;26.02;;;4.70;81.90;;;;;;4986624;28;20913;-76
2021/03/01 06:14:28;;;;;;;45.78;25.60;;;4.80;80.20;;;;;;4975143;28;20474;-74
2021/03/01 06:17:10;;;;;;;45.83;25.13;;;4.80;79.90;;;;;;4976926;28;20399;-73
2021/03/01 06:19:52;;;;;;;42.67;24.42;;;4.80;79.50;;;;;;4992466;28;20394;-74
2021/03/01 06:22:20;;;;;;;46.90;26.15;;;4.90;79.10;;;;;;4995475;28;20390;-76
2021/03/01 06:25:14;;;;;;;43.95;24.05;;;4.90;78.40;;;;;;4977930;28;20406;-75
2021/03/01 06:27:50;;;;;;;42.92;24.73;;;4.90;79.30;;;;;;4977450;28;20457;-74
2021/03/01 06:30:18;;;;;;;46.25;25.42;;;4.90;79.30;;;;;;4964806;28;20483;-75
2021/03/01 06:33:01;;;;;;;46.42;25.15;;;4.90;80.90;;;;;;4958036;28;20890;-75
2021/03/01 06:35:42;;;;;;;48.83;26.75;;;4.90;82.70;;;;;;4956194;29;20485;-75
2021/03/01 06:38:31;;;;;;;45.70;25.23;;;4.90;82.00;;;;;;4968215;28;20397;-74
2021/03/01 06:41:13;;;;;;;42.30;24.08;;;5.10;78.20;;;;;;4995170;28;20865;-74
2021/03/01 06:43:52;;;;;;;44.67;24.50;;;5.20;75.80;;;;;;4962502;28;20894;-73
2021/03/01 06:46:18;;;;;;;47.17;23.52;;;5.30;73.50;;;;;;4981454;28;20437;-74
2021/03/01 06:48:43;;;;;;;44.27;23.93;;;5.20;73.80;;;;;;4992847;28;20433;-74
2021/03/01 06:51:09;;;;;;;43.00;23.97;;;5.30;73.80;;;;;;4989587;28;20775;-74
2021/03/01 06:53:36;;;;;;;40.00;22.47;;;5.20;72.80;;;;;;4975057;28;20502;-74
2021/03/01 06:56:08;;;;;;;43.40;23.52;;;5.20;73.60;;;;;;4978917;28;20402;-75
2021/03/01 06:58:37;;;;;;;43.72;23.35;;;5.30;74.50;;;;;;4994712;28;20464;-74
2021/03/01 07:01:06;;;;;;;41.53;23.13;;;5.30;71.90;;;;;;4990187;28;20390;-75
2021/03/01 07:03:32;;;;;;;45.30;23.70;;;5.30;73.60;;;;;;4991518;28;20436;-74
2021/03/01 07:06:00;;;;;;;40.13;21.90;;;5.30;72.40;;;;;;4976610;28;20410;-75
2021/03/01 07:08:37;;;;;;;38.50;22.38;;;5.40;73.50;;;;;;4975270;28;20474;-74
2021/03/01 07:11:05;;;;;;;42.13;23.35;;;5.50;72.30;;;;;;4977157;28;20761;-74
2021/03/01 07:13:31;;;;;;;40.63;22.20;;;5.50;72.20;;;;;;4975950;28;20479;-75
2021/03/01 07:15:58;;;;;;;39.55;22.30;;;5.40;73.50;;;;;;4975414;28;20388;-74
2021/03/01 07:18:27;;;;;;;38.17;21.85;;;5.40;74.70;;;;;;4957308;28;20431;-74
2021/03/01 07:20:53;;;;;;;37.42;22.17;;;5.40;75.60;;;;;;4979837;28;20454;-77
2021/03/01 07:23:19;;;;;;;36.60;22.50;;;5.70;71.20;;;;;;4980965;28;20406;-72
2021/03/01 07:25:45;;;;;;;38.13;21.55;;;5.90;67.70;;;;;;4956318;28;20448;-71
2021/03/01 07:28:18;;;;;;;36.45;21.30;;;6.00;66.20;;;;;;4973934;28;20535;-73
2021/03/01 07:30:46;;;;;;;38.70;21.35;;;6.10;65.00;;;;;;4967274;28;20416;-72
2021/03/01 07:33:16;;;;;;;36.95;20.92;;;6.10;66.00;;;;;;4973628;28;20416;-72
2021/03/01 07:35:43;;;;;;;38.42;21.80;;;6.20;64.80;;;;;;4973780;28;20570;-72
2021/03/01 07:38:09;;;;;;;36.90;21.50;;;6.00;63.70;;;;;;4975109;28;20419;-73
2021/03/01 07:40:38;;;;;;;38.40;22.53;;;6.00;65.60;;;;;;4974387;28;20396;-77
2021/03/01 07:43:04;;;;;;;37.38;20.88;;;6.00;67.20;;;;;;4976742;28;20408;-72
2021/03/01 07:45:33;;;;;;;35.33;20.48;;;6.10;66.50;;;;;;4974858;28;20407;-72
2021/03/01 07:48:11;;;;;;;36.03;21.02;;;6.10;64.10;;;;;;4979152;28;20490;-71
2021/03/01 07:50:40;;;;;;;36.67;21.30;;;6.00;66.20;;;;;;4972115;28;20491;-71
2021/03/01 07:53:45;;;;;;;36.35;20.75;;;6.20;65.60;;;;;;4971388;28;20436;-75
2021/03/01 07:56:23;;;;;;;33.10;20.02;;;6.20;64.00;;;;;;4969456;28;20410;-74
2021/03/01 07:59:00;;;;;;;34.28;20.95;;;6.20;67.50;;;;;;4973241;28;20388;-72
2021/03/01 08:01:26;;;;;;;36.53;21.08;;;6.10;66.30;;;;;;4984794;28;20401;-72
2021/03/01 08:03:51;;;;;;;34.47;20.83;;;6.20;65.60;;;;;;4973974;28;20404;-71
2021/03/01 08:06:17;;;;;;;35.20;19.33;;;6.20;63.80;;;;;;4965794;28;20868;-72
2021/03/01 08:08:58;;;;;;;34.30;20.50;;;6.20;63.50;;;;;;4972827;28;20408;-74
2021/03/01 08:11:46;;;;;;;34.40;19.52;;;6.30;64.30;;;;;;4944370;28;20460;-75
2021/03/01 08:14:33;;;;;;;31.95;19.70;;;6.40;61.00;;;;;;4978741;28;20552;-76
2021/03/01 08:17:27;;;;;;;43.95;23.08;;;6.40;61.70;;;;;;4960390;28;20529;-74
2021/03/01 08:19:57;;;;;;;35.72;21.63;;;6.60;59.70;;;;;;4967946;28;20451;-75
2021/03/01 08:22:26;;;;;;;37.92;22.50;;;6.60;59.90;;;;;;4973318;28;20416;-74
2021/03/01 08:24:56;;;;;;;41.25;23.77;;;6.70;62.60;;;;;;4954227;28;20399;-72
2021/03/01 08:27:25;;;;;;;39.85;23.20;;;6.70;61.70;;;;;;4942451;28;20467;-74
2021/03/01 08:30:17;;;;;;;45.03;24.55;;;6.80;60.80;;;;;;4954467;28;20419;-72
2021/03/01 08:32:43;;;;;;;38.33;23.33;;;7.00;60.20;;;;;;4959563;28;20438;-73
2021/03/01 08:35:25;;;;;;;41.08;21.83;;;7.20;56.90;;;;;;4956548;28;20486;-73
2021/03/01 08:37:51;;;;;;;33.10;20.48;;;7.30;54.60;;;;;;4972390;28;20487;-74
2021/03/01 08:40:25;;;;;;;31.52;19.98;;;7.10;55.60;;;;;;4954009;28;20393;-73
2021/03/01 08:42:54;;;;;;;32.15;19.60;;;6.90;57.30;;;;;;4970282;28;20404;-74
2021/03/01 08:45:22;;;;;;;29.50;18.55;;;6.80;56.80;;;;;;4978473;28;20435;-74
2021/03/01 08:47:56;;;;;;;36.45;18.92;;;6.70;58.60;;;;;;4975299;28;20400;-74
2021/03/01 08:50:24;;;;;;;28.97;18.77;;;6.60;58.80;;;;;;4986732;28;20405;-73
2021/03/01 08:52:50;;;;;;;29.10;18.17;;;6.50;61.20;;;;;;4974919;28;20416;-73
2021/03/01 08:55:20;;;;;;;30.13;18.55;;;6.60;60.20;;;;;;4971521;28;20982;-74
2021/03/01 08:58:18;;;;;;;27.70;17.77;;;6.60;58.40;;;;;;4968144;28;20396;-80
2021/03/01 09:00:57;;;;;;;28.02;17.40;;;6.50;60.20;;;;;;4972426;28;20404;-74
2021/03/01 09:03:32;;;;;;;30.35;17.70;;;6.40;60.10;;;;;;4953961;28;20447;-74
2021/03/01 09:06:08;;;;;;;24.83;16.75;;;6.40;59.80;;;;;;4975188;28;20502;-72
2021/03/01 09:08:44;;;;;;;29.57;16.60;;;6.40;60.70;;;;;;4972120;28;20786;-72
2021/03/01 09:11:18;;;;;;;29.40;17.20;;;6.40;61.00;;;;;;4975049;28;20455;-72
2021/03/01 09:13:45;;;;;;;31.98;17.52;;;6.40;60.80;;;;;;4972311;28;20415;-73
2021/03/01 09:16:24;;;;;;;27.07;17.50;;;6.50;61.30;;;;;;4977944;28;20467;-72
2021/03/01 09:19:09;;;;;;;29.30;17.20;;;6.60;61.10;;;;;;4974190;28;20770;-72
2021/03/01 09:21:40;;;;;;;27.85;17.30;;;6.70;62.40;;;;;;4976241;28;20862;-73
2021/03/01 09:24:08;;;;;;;27.90;17.02;;;6.90;59.80;;;;;;4986222;28;20408;-74
2021/03/01 09:26:38;;;;;;;28.23;17.50;;;7.00;56.10;;;;;;4976865;28;20443;-73
2021/03/01 09:29:15;;;;;;;27.67;17.35;;;6.90;56.90;;;;;;4980630;28;20439;-73
2021/03/01 09:31:44;;;;;;;25.05;15.82;;;7.00;56.30;;;;;;4970515;28;20467;-71
2021/03/01 09:34:11;;;;;;;24.60;15.02;;;7.00;57.40;;;;;;4972170;28;20420;-72
2021/03/01 09:36:40;;;;;;;20.85;14.10;;;7.10;56.30;;;;;;4970698;28;20557;-73
2021/03/01 09:39:08;;;;;;;23.15;15.07;;;7.20;53.70;;;;;;4971264;28;20486;-72
2021/03/01 09:41:38;;;;;;;25.25;16.60;;;7.10;52.70;;;;;;4967682;28;20967;-72
2021/03/01 09:44:08;;;;;;;23.95;15.60;;;7.10;54.70;;;;;;4953090;29;20394;-72
2021/03/01 09:46:34;;;;;;;30.83;17.10;;;7.00;54.70;;;;;;4965997;28;20829;-72
2021/03/01 09:49:06;;;;;;;24.80;15.95;;;7.20;54.80;;;;;;4971515;28;20415;-72
2021/03/01 09:51:32;;;;;;;23.83;14.38;;;7.60;52.80;;;;;;4971865;28;20778;-72
2021/03/01 09:54:06;;;;;;;20.00;14.03;;;8.10;48.00;;;;;;4971073;28;20993;-73
2021/03/01 09:56:46;;;;;;;22.23;15.30;;;8.20;48.30;;;;;;4970775;28;20424;-73
2021/03/01 09:59:12;;;;;;;25.45;15.23;;;8.10;47.30;;;;;;4970972;28;20395;-70
2021/03/01 10:01:41;;;;;;;23.05;15.30;;;7.90;47.80;;;;;;4968123;28;20409;-72
2021/03/01 10:04:07;;;;;;;26.27;17.27;;;7.80;48.30;;;;;;4970471;28;20411;-71
2021/03/01 10:06:36;;;;;;;22.38;14.80;;;7.80;49.50;;;;;;4970011;28;20408;-72
2021/03/01 10:09:07;;;;;;;23.50;15.10;;;7.80;48.80;;;;;;4970945;28;20408;-73
2021/03/01 10:11:33;;;;;;;24.85;16.60;;;7.80;48.40;;;;;;4970859;28;20494;-72
2021/03/01 10:14:04;;;;;;;23.38;14.85;;;7.90;49.20;;;;;;4971070;28;20439;-71
2021/03/01 10:16:34;;;;;;;20.80;14.50;;;8.10;48.00;;;;;;4970993;28;20398;-72
2021/03/01 10:19:21;;;;;;;21.60;13.63;;;8.20;48.50;;;;;;4970560;28;20431;-71
2021/03/01 10:21:47;;;;;;;21.77;14.55;;;8.40;48.00;;;;;;4970863;28;20431;-71
2021/03/01 10:24:15;;;;;;;21.00;15.02;;;8.60;46.60;;;;;;4970686;28;20955;-72
2021/03/01 10:26:55;;;;;;;20.20;14.50;;;8.70;47.40;;;;;;4971120;28;20392;-73
2021/03/01 10:29:36;;;;;;;19.42;13.73;;;8.80;42.80;;;;;;4952813;28;20401;-72
2021/03/01 10:32:03;;;;;;;21.90;13.88;;;8.70;43.20;;;;;;4970357;28;20452;-72
2021/03/01 10:34:31;;;;;;;19.30;14.60;;;8.50;44.00;;;;;;4973657;28;20539;-73
2021/03/01 10:37:00;;;;;;;22.45;14.23;;;8.50;44.20;;;;;;4975004;28;20396;-71
2021/03/01 10:39:45;;;;;;;22.20;13.57;;;8.60;43.90;;;;;;4976076;28;20446;-71
2021/03/01 10:42:22;;;;;;;21.15;14.20;;;8.50;43.70;;;;;;4975225;28;20399;-72
2021/03/01 10:44:54;;;;;;;21.08;13.70;;;8.60;44.30;;;;;;4975262;28;20900;-72
2021/03/01 10:47:31;;;;;;;20.93;13.60;;;8.70;44.00;;;;;;4966047;28;20412;-72
2021/03/01 10:50:18;;;;;;;22.15;14.50;;;8.70;43.10;;;;;;4973366;28;20428;-72
2021/03/01 10:52:44;;;;;;;20.98;14.07;;;8.90;43.10;;;;;;4955015;29;20397;-73
2021/03/01 10:55:10;;;;;;;24.10;15.15;;;8.80;42.40;;;;;;4963362;28;20389;-72
2021/03/01 10:57:36;;;;;;;19.85;13.77;;;8.90;42.70;;;;;;4974063;28;20458;-71
2021/03/01 11:00:02;;;;;;;22.17;14.63;;;8.90;42.90;;;;;;4973412;28;20388;-71
2021/03/01 11:02:28;;;;;;;23.80;15.02;;;8.90;42.50;;;;;;4974965;28;20384;-73
2021/03/01 11:04:54;;;;;;;21.58;13.80;;;8.90;42.40;;;;;;4976017;28;20475;-70
2021/03/01 11:07:22;;;;;;;22.35;13.27;;;8.90;42.70;;;;;;4975159;28;20434;-72
2021/03/01 11:09:48;;;;;;;20.05;13.20;;;9.10;40.50;;;;;;4974325;28;20476;-73
2021/03/01 11:12:14;;;;;;;22.95;13.85;;;9.20;40.10;;;;;;4956321;28;20491;-73
2021/03/01 11:14:40;;;;;;;21.60;13.60;;;9.30;41.10;;;;;;4974324;28;20487;-72
2021/03/01 11:17:05;;;;;;;19.40;13.07;;;9.50;39.60;;;;;;4953076;29;20402;-71
2021/03/01 11:19:31;;;;;;;23.30;15.60;;;9.60;37.90;;;;;;4968383;28;20495;-72
2021/03/01 11:21:57;;;;;;;19.55;13.95;;;9.60;37.50;;;;;;4974515;28;20869;-72
2021/03/01 11:24:23;;;;;;;19.88;12.52;;;9.50;37.60;;;;;;4975327;28;20410;-71
2021/03/01 11:26:52;;;;;;;20.17;13.05;;;9.40;37.60;;;;;;4975105;28;20471;-72
2021/03/01 11:29:19;;;;;;;19.45;13.02;;;9.50;38.10;;;;;;4974890;28;20400;-72
2021/03/01 11:31:48;;;;;;;25.20;13.60;;;9.50;37.00;;;;;;4975185;28;20424;-72
2021/03/01 11:34:13;;;;;;;17.97;13.27;;;9.70;37.20;;;;;;4974407;28;20917;-71
2021/03/01 11:36:39;;;;;;;20.50;12.10;;;9.80;35.00;;;;;;4975005;28;20475;-71
2021/03/01 11:39:07;;;;;;;20.95;12.80;;;9.70;35.40;;;;;;4969576;28;20408;-70
2021/03/01 11:41:32;;;;;;;17.70;12.60;;;9.80;36.30;;;;;;4968007;28;20388;-72
2021/03/01 11:43:58;;;;;;;18.60;12.30;;;9.90;36.00;;;;;;4974246;28;20732;-72
2021/03/01 11:46:23;;;;;;;16.85;11.40;;;9.90;37.00;;;;;;4973458;28;20731;-74
2021/03/01 11:48:49;;;;;;;18.38;12.13;;;9.90;35.20;;;;;;4972786;28;20404;-73
2021/03/01 11:51:16;;;;;;;18.05;12.57;;;10.00;36.20;;;;;;4972819;28;20523;-72
2021/03/01 11:53:43;;;;;;;21.98;12.00;;;10.00;34.90;;;;;;4972797;28;20412;-72
2021/03/01 11:56:09;;;;;;;18.35;11.77;;;9.90;34.20;;;;;;4955414;28;20475;-73
2021/03/01 11:58:36;;;;;;;19.67;12.35;;;10.00;34.20;;;;;;4973045;28;20408;-71
2021/03/01 12:01:02;;;;;;;16.33;11.47;;;10.00;34.70;;;;;;4972598;28;20385;-71
2021/03/01 12:03:27;;;;;;;17.90;10.55;;;10.00;33.40;;;;;;4972618;28;20391;-71
2021/03/01 12:05:53;;;;;;;18.40;11.77;;;10.00;32.70;;;;;;4972598;28;20399;-72
2021/03/01 12:08:19;;;;;;;19.35;11.57;;;10.10;33.30;;;;;;4972062;28;20491;-71
2021/03/01 12:10:44;;;;;;;16.38;11.07;;;10.20;31.70;;;;;;4972515;28;20400;-71
2021/03/01 12:13:10;;;;;;;15.63;10.75;;;10.10;31.30;;;;;;4972330;28;20412;-71
2021/03/01 12:15:35;;;;;;;17.55;11.00;;;10.20;32.60;;;;;;4972602;28;20897;-72
2021/03/01 12:18:01;;;;;;;16.98;10.95;;;10.30;30.90;;;;;;4972233;28;20849;-73
2021/03/01 12:20:27;;;;;;;18.75;11.30;;;10.50;31.40;;;;;;4972150;28;20385;-72
2021/03/01 12:22:53;;;;;;;17.70;11.50;;;10.50;31.00;;;;;;4954704;28;20435;-73
2021/03/01 12:25:19;;;;;;;16.27;10.23;;;10.60;30.60;;;;;;4972099;28;20424;-72
2021/03/01 12:27:44;;;;;;;14.70;11.10;;;10.80;30.50;;;;;;4972885;28;20419;-72
2021/03/01 12:30:11;;;;;;;18.00;11.20;;;10.90;29.60;;;;;;4972344;28;20435;-71
2021/03/01 12:32:37;;;;;;;17.00;10.90;;;11.00;28.90;;;;;;4972923;28;20854;-71
2021/03/01 12:35:04;;;;;;;15.50;10.30;;;11.00;28.70;;;;;;4972564;28;20458;-73
2021/03/01 12:37:30;;;;;;;13.60;10.50;;;11.00;27.70;;;;;;4972167;28;20395;-72
2021/03/01 12:39:56;;;;;;;15.27;10.13;;;11.00;27.60;;;;;;4972245;28;20388;-72
2021/03/01 12:42:23;;;;;;;20.88;11.05;;;11.00;27.80;;;;;;4972375;28;20407;-71
2021/03/01 12:44:49;;;;;;;15.93;10.18;;;11.00;27.40;;;;;;4972282;28;20432;-72